createdAt,value
2017-11-21T00:00:21.718Z,95.38
2017-11-21T00:02:49.287Z,95.33
2017-11-21T00:05:16.864Z,95.06
2017-11-21T00:07:44.466Z,95.15
2017-11-21T00:10:12.039Z,95.64
2017-11-21T00:12:39.604Z,96.04
2017-11-21T00:15:07.179Z,95.07
2017-11-21T00:17:34.743Z,95.84
2017-11-21T00:20:02.317Z,96.34
2017-11-21T00:22:32.870Z,96.47
2017-11-21T00:25:00.443Z,96.57
2017-11-21T00:27:28.016Z,95.86
2017-11-21T00:29:55.590Z,96.30
2017-11-21T00:32:23.162Z,96.37
2017-11-21T00:34:50.762Z,95.68
2017-11-21T00:37:18.321Z,95.71
2017-11-21T00:39:45.918Z,96.04
2017-11-21T00:42:13.482Z,96.18
2017-11-21T00:44:41.047Z,95.05
2017-11-21T00:47:08.609Z,95.08
2017-11-21T00:49:36.177Z,96.34
2017-11-21T00:52:03.746Z,96.82
2017-11-21T00:54:31.309Z,96.56
2017-11-21T00:56:58.870Z,96.38
2017-11-21T00:59:26.478Z,95.54
2017-11-21T01:01:54.045Z,95.26
2017-11-21T01:04:21.654Z,95.61
2017-11-21T01:06:49.233Z,96.34
2017-11-21T01:09:16.799Z,96.33
2017-11-21T01:11:44.364Z,96.04
2017-11-21T01:14:11.930Z,95.94
2017-11-21T01:16:39.497Z,96.04
2017-11-21T01:19:07.062Z,96.41
2017-11-21T01:21:34.627Z,95.80
2017-11-21T01:24:02.262Z,95.94
2017-11-21T01:26:29.831Z,96.29
2017-11-21T01:28:57.397Z,96.38
2017-11-21T01:31:24.957Z,96.49
2017-11-21T01:33:52.521Z,96.90
2017-11-21T01:36:20.126Z,96.37
2017-11-21T01:38:47.694Z,96.68
2017-11-21T01:41:15.264Z,95.57
2017-11-21T01:43:42.829Z,95.98
2017-11-21T01:46:10.392Z,95.69
2017-11-21T01:48:37.994Z,94.92
2017-11-21T01:51:05.566Z,94.32
2017-11-21T01:53:33.130Z,94.62
2017-11-21T01:56:00.702Z,94.95
2017-11-21T01:58:28.269Z,95.74
2017-11-21T02:00:55.834Z,96.08
2017-11-21T02:03:23.413Z,95.79
2017-11-21T02:05:51.011Z,95.76
2017-11-21T02:08:18.583Z,95.89
2017-11-21T02:10:46.182Z,95.92
2017-11-21T02:13:13.749Z,96.13
2017-11-21T02:15:41.313Z,96.11
2017-11-21T02:18:08.897Z,96.67
2017-11-21T02:20:36.466Z,96.97
2017-11-21T02:23:04.038Z,95.28
2017-11-21T02:25:31.599Z,96.47
2017-11-21T02:27:59.167Z,96.34
2017-11-21T02:30:26.726Z,96.28
2017-11-21T02:32:54.327Z,96.76
2017-11-21T02:35:21.894Z,96.93
2017-11-21T02:37:49.459Z,97.05
2017-11-21T02:40:17.025Z,97.01
2017-11-21T02:42:44.629Z,96.59
2017-11-21T02:45:12.195Z,96.78
2017-11-21T02:47:39.787Z,96.41
2017-11-21T02:50:07.896Z,95.61
2017-11-21T02:52:35.515Z,96.46
2017-11-21T02:55:03.085Z,96.29
2017-11-21T02:57:30.658Z,96.40
2017-11-21T02:59:58.221Z,96.49
2017-11-21T03:02:25.797Z,96.50
2017-11-21T03:04:53.398Z,96.48
2017-11-21T03:07:20.993Z,96.81
2017-11-21T03:09:48.565Z,97.11
2017-11-21T03:12:16.139Z,96.31
2017-11-21T03:14:43.745Z,96.86
2017-11-21T03:17:11.333Z,96.88
2017-11-21T03:19:38.908Z,96.22
2017-11-21T03:22:18.246Z,95.80
2017-11-21T03:28:01.589Z,94.88
2017-11-21T03:30:29.188Z,96.17
2017-11-21T03:32:56.807Z,96.17
2017-11-21T03:35:24.378Z,95.54
2017-11-21T03:37:52.025Z,95.61
2017-11-21T03:40:19.637Z,95.77
2017-11-21T03:42:47.206Z,96.26
2017-11-21T03:45:14.809Z,96.67
2017-11-21T03:47:42.373Z,96.57
2017-11-21T03:50:09.971Z,96.15
2017-11-21T03:52:37.587Z,95.50
2017-11-21T03:55:05.182Z,95.23
2017-11-21T03:57:32.777Z,95.43
2017-11-21T04:00:00.342Z,94.99
2017-11-21T04:02:27.945Z,95.73
2017-11-21T04:04:55.515Z,96.10
2017-11-21T04:07:23.133Z,96.08
2017-11-21T04:09:50.693Z,96.41
2017-11-21T04:12:18.258Z,96.52
2017-11-21T04:14:45.825Z,96.19
2017-11-21T04:17:13.416Z,96.88
2017-11-21T04:19:41.052Z,96.85
2017-11-21T04:22:08.623Z,96.84
2017-11-21T04:24:36.233Z,96.42
2017-11-21T04:27:03.811Z,96.54
2017-11-21T04:29:31.413Z,96.28
2017-11-21T04:31:58.979Z,96.56
2017-11-21T04:34:26.547Z,97.11
2017-11-21T04:36:54.122Z,97.50
2017-11-21T04:39:21.696Z,96.56
2017-11-21T04:41:49.294Z,96.59
2017-11-21T04:44:17.648Z,96.85
2017-11-21T04:46:45.217Z,96.49
2017-11-21T04:49:12.792Z,95.84
2017-11-21T04:51:40.379Z,95.81
2017-11-21T04:54:07.952Z,95.43
2017-11-21T04:56:35.519Z,96.28
2017-11-21T04:59:03.103Z,95.83
2017-11-21T05:01:30.670Z,96.19
2017-11-21T05:03:58.248Z,96.37
2017-11-21T05:06:25.820Z,96.22
2017-11-21T05:08:53.412Z,96.49
2017-11-21T05:11:21.232Z,96.34
2017-11-21T05:13:48.820Z,96.57
2017-11-21T05:16:16.394Z,96.12
2017-11-21T05:18:43.988Z,96.71
2017-11-21T05:21:11.588Z,96.11
2017-11-21T05:23:39.167Z,95.43
2017-11-21T05:26:06.741Z,95.82
2017-11-21T05:28:34.310Z,95.84
2017-11-21T05:31:01.884Z,96.67
2017-11-21T05:33:40.685Z,96.99
2017-11-21T05:36:08.264Z,96.58
2017-11-21T05:38:35.835Z,96.40
2017-11-21T05:41:03.407Z,96.40
2017-11-21T05:43:31.019Z,96.73
2017-11-21T05:45:58.600Z,97.09
2017-11-21T05:48:26.206Z,97.51
2017-11-21T05:50:53.778Z,97.33
2017-11-21T05:53:21.355Z,97.64
2017-11-21T05:55:48.927Z,97.23
2017-11-21T05:58:16.543Z,97.49
2017-11-21T06:00:44.124Z,97.32
2017-11-21T06:03:11.727Z,96.87
2017-11-21T06:05:39.304Z,96.59
2017-11-21T06:08:06.899Z,96.80
2017-11-21T06:10:34.490Z,96.18
2017-11-21T06:13:02.067Z,96.59
2017-11-21T06:15:29.683Z,96.70
2017-11-21T06:17:57.963Z,96.16
2017-11-21T06:20:25.538Z,96.45
2017-11-21T06:22:54.050Z,96.28
2017-11-21T06:25:21.866Z,96.47
2017-11-21T06:27:49.729Z,97.12
2017-11-21T06:30:18.909Z,96.49
2017-11-21T06:32:46.481Z,96.43
2017-11-21T06:35:14.090Z,96.23
2017-11-21T06:37:41.750Z,96.25
2017-11-21T06:40:09.324Z,96.67
2017-11-21T06:42:36.897Z,96.61
2017-11-21T06:45:04.467Z,96.24
2017-11-21T06:47:32.034Z,96.82
2017-11-21T06:49:59.661Z,97.22
2017-11-21T06:52:27.278Z,97.25
2017-11-21T06:54:54.843Z,96.33
2017-11-21T06:57:22.415Z,96.70
2017-11-21T06:59:49.978Z,96.94
2017-11-21T07:02:17.549Z,97.28
2017-11-21T07:04:45.129Z,96.54
2017-11-21T07:07:12.696Z,97.35
2017-11-21T07:09:40.261Z,97.80
2017-11-21T07:12:07.826Z,97.64
2017-11-21T07:14:35.386Z,97.57
2017-11-21T07:17:02.991Z,96.82
2017-11-21T07:19:30.586Z,97.12
2017-11-21T07:21:58.196Z,96.50
2017-11-21T07:24:25.811Z,96.47
2017-11-21T07:26:53.390Z,95.80
2017-11-21T07:29:20.961Z,96.43
2017-11-21T07:31:48.531Z,96.23
2017-11-21T07:34:16.102Z,96.73
2017-11-21T07:36:43.675Z,96.75
2017-11-21T07:39:11.239Z,96.52
2017-11-21T07:41:38.835Z,96.09
2017-11-21T07:44:06.435Z,96.30
2017-11-21T07:46:34.054Z,96.68
2017-11-21T07:49:01.630Z,96.02
2017-11-21T07:51:29.205Z,95.15
2017-11-21T07:53:56.840Z,95.96
2017-11-21T07:56:24.463Z,96.13
2017-11-21T07:58:52.023Z,96.49
2017-11-21T08:01:19.626Z,96.82
2017-11-21T08:03:47.229Z,96.46
2017-11-21T08:06:14.793Z,96.29
2017-11-21T08:08:42.363Z,96.16
2017-11-21T08:11:10.072Z,96.84
2017-11-21T08:13:37.638Z,97.04
2017-11-21T08:16:05.299Z,97.25
2017-11-21T08:18:32.958Z,96.72
2017-11-21T08:21:00.618Z,97.28
2017-11-21T08:23:28.201Z,96.67
2017-11-21T08:25:55.774Z,96.76
2017-11-21T08:28:23.410Z,96.36
2017-11-21T08:30:50.999Z,95.85
2017-11-21T08:33:18.570Z,96.75
2017-11-21T08:35:46.190Z,96.40
2017-11-21T08:38:13.767Z,95.68
2017-11-21T08:40:41.346Z,96.90
2017-11-21T08:43:08.914Z,95.64
2017-11-21T08:45:36.518Z,95.45
2017-11-21T08:48:04.084Z,95.57
2017-11-21T08:50:31.656Z,95.45
2017-11-21T08:52:59.230Z,95.33
2017-11-21T08:55:26.795Z,95.94
2017-11-21T08:57:54.365Z,95.24
2017-11-21T09:00:21.930Z,94.63
2017-11-21T09:02:49.498Z,95.95
2017-11-21T09:05:17.062Z,94.78
2017-11-21T09:07:44.628Z,95.12
2017-11-21T09:10:12.196Z,95.24
2017-11-21T09:12:39.762Z,94.23
2017-11-21T09:15:07.365Z,94.56
2017-11-21T09:17:34.936Z,95.07
2017-11-21T09:20:02.549Z,95.93
2017-11-21T09:22:30.115Z,96.04
2017-11-21T09:24:57.677Z,94.69
2017-11-21T09:27:25.238Z,95.00
2017-11-21T09:29:52.814Z,95.68
2017-11-21T09:32:20.378Z,95.24
2017-11-21T09:34:47.955Z,95.84
2017-11-21T09:37:15.528Z,95.29
2017-11-21T09:39:43.095Z,95.96
2017-11-21T09:42:10.666Z,96.16
2017-11-21T09:44:38.231Z,94.88
2017-11-21T09:47:05.794Z,95.70
2017-11-21T09:49:33.358Z,95.23
2017-11-21T09:52:00.959Z,94.96
2017-11-21T09:54:28.522Z,95.21
2017-11-21T09:56:56.138Z,95.05
2017-11-21T09:59:23.721Z,95.21
2017-11-21T10:01:51.290Z,95.20
2017-11-21T10:04:18.851Z,94.19
2017-11-21T10:06:46.418Z,95.40
2017-11-21T10:09:14.009Z,95.32
2017-11-21T10:11:41.578Z,94.99
2017-11-21T10:14:09.147Z,94.65
2017-11-21T10:16:36.748Z,93.95
2017-11-21T10:19:04.317Z,94.10
2017-11-21T10:21:31.890Z,93.88
2017-11-21T10:23:59.451Z,94.56
2017-11-21T10:26:27.021Z,95.25
2017-11-21T10:28:54.587Z,95.25
2017-11-21T10:31:22.146Z,94.97
2017-11-21T10:33:49.709Z,95.49
2017-11-21T10:36:17.318Z,95.66
2017-11-21T10:38:44.877Z,95.19
2017-11-21T10:41:12.449Z,95.78
2017-11-21T10:43:40.014Z,94.94
2017-11-21T10:46:07.581Z,94.30
2017-11-21T10:48:35.146Z,94.39
2017-11-21T10:51:02.715Z,94.67
2017-11-21T10:53:30.310Z,94.60
2017-11-21T10:55:57.875Z,94.36
2017-11-21T10:58:25.439Z,94.75
2017-11-21T11:00:52.997Z,93.66
2017-11-21T11:03:20.634Z,93.94
2017-11-21T11:05:48.199Z,94.51
2017-11-21T11:08:15.772Z,93.67
2017-11-21T11:10:43.344Z,95.27
2017-11-21T11:13:10.907Z,93.54
2017-11-21T11:15:38.507Z,94.35
2017-11-21T11:18:06.082Z,93.91
2017-11-21T11:20:33.636Z,94.25
2017-11-21T11:23:01.202Z,94.74
2017-11-21T11:25:28.762Z,95.22
2017-11-21T11:27:56.321Z,94.94
2017-11-21T11:30:23.894Z,94.91
2017-11-21T11:32:51.459Z,94.50
2017-11-21T11:35:19.026Z,95.04
2017-11-21T11:37:46.599Z,95.05
2017-11-21T11:40:14.157Z,94.52
2017-11-21T11:42:41.753Z,95.03
2017-11-21T11:45:09.314Z,94.15
2017-11-21T11:47:36.912Z,95.15
2017-11-21T11:50:04.478Z,95.12
2017-11-21T11:52:32.087Z,94.10
2017-11-21T11:54:59.650Z,94.10
2017-11-21T11:57:27.212Z,95.29
2017-11-21T11:59:54.773Z,94.88
2017-11-21T12:02:22.334Z,94.71
2017-11-21T12:04:49.891Z,94.29
2017-11-21T12:07:17.502Z,95.19
2017-11-21T12:09:45.064Z,95.58
2017-11-21T12:12:12.622Z,94.67
2017-11-21T12:14:40.174Z,95.31
2017-11-21T12:17:07.728Z,94.80
2017-11-21T12:19:35.291Z,95.82
2017-11-21T12:22:02.854Z,95.70
2017-11-21T12:24:30.433Z,96.07
2017-11-21T12:26:57.999Z,95.41
2017-11-21T12:29:25.571Z,95.38
2017-11-21T12:31:53.133Z,93.08
2017-11-21T12:34:20.734Z,92.64
2017-11-21T12:36:48.295Z,92.92
2017-11-21T12:39:15.853Z,92.86
2017-11-21T12:41:43.409Z,91.83
2017-11-21T12:44:10.991Z,93.56
2017-11-21T12:46:38.555Z,93.43
2017-11-21T12:49:06.117Z,93.78
2017-11-21T12:51:33.683Z,94.01
2017-11-21T12:54:01.250Z,93.77
2017-11-21T12:56:28.861Z,92.83
2017-11-21T12:58:56.436Z,93.57
2017-11-21T13:01:24.043Z,92.52
2017-11-21T13:03:51.605Z,93.19
2017-11-21T13:06:19.169Z,94.31
2017-11-21T13:08:46.731Z,94.49
2017-11-21T13:11:14.297Z,94.83
2017-11-21T13:13:41.900Z,94.00
2017-11-21T13:16:09.463Z,94.48
2017-11-21T13:18:37.057Z,95.08
2017-11-21T13:21:04.618Z,95.04
2017-11-21T13:23:32.219Z,95.10
2017-11-21T13:25:59.787Z,94.70
2017-11-21T13:28:27.354Z,93.46
2017-11-21T13:30:54.950Z,92.40
2017-11-21T13:33:22.529Z,93.73
2017-11-21T13:35:50.090Z,93.91
2017-11-21T13:38:17.645Z,94.04
2017-11-21T13:40:45.247Z,94.04
2017-11-21T13:43:12.810Z,94.30
2017-11-21T13:45:40.510Z,94.82
2017-11-21T13:48:08.067Z,94.91
2017-11-21T13:50:35.637Z,95.42
2017-11-21T13:53:03.209Z,94.99
2017-11-21T13:55:30.778Z,94.17
2017-11-21T13:57:58.356Z,93.62
2017-11-21T14:00:25.916Z,93.56
2017-11-21T14:02:53.518Z,93.22
2017-11-21T14:05:24.874Z,93.37
2017-11-21T14:07:52.488Z,92.63
2017-11-21T14:10:21.009Z,93.82
2017-11-21T14:12:48.595Z,94.57
2017-11-21T14:15:16.157Z,94.46
2017-11-21T14:17:43.722Z,95.26
2017-11-21T14:20:11.292Z,95.52
2017-11-21T14:22:38.855Z,96.05
2017-11-21T14:25:06.414Z,96.52
2017-11-21T14:27:34.018Z,95.41
2017-11-21T14:30:01.581Z,95.64
2017-11-21T14:32:29.158Z,95.48
2017-11-21T14:34:56.723Z,95.77
2017-11-21T14:37:24.292Z,96.21
2017-11-21T14:39:51.859Z,95.77
2017-11-21T14:42:19.420Z,96.14
2017-11-21T14:44:46.988Z,95.23
2017-11-21T14:47:14.558Z,94.90
2017-11-21T14:49:42.114Z,94.88
2017-11-21T14:52:09.677Z,95.84
2017-11-21T14:54:37.234Z,95.88
2017-11-21T14:57:04.797Z,95.37
2017-11-21T14:59:32.385Z,95.61
2017-11-21T15:01:59.946Z,94.62
2017-11-21T15:04:27.518Z,94.51
2017-11-21T15:06:55.115Z,94.66
2017-11-21T15:09:22.689Z,95.57
2017-11-21T15:11:50.258Z,96.02
2017-11-21T15:14:17.818Z,96.21
2017-11-21T15:16:45.387Z,95.93
2017-11-21T15:19:12.992Z,96.31
2017-11-21T15:21:40.557Z,96.23
2017-11-21T15:24:08.200Z,97.02
2017-11-21T15:26:35.770Z,96.78
2017-11-21T15:29:03.334Z,97.39
2017-11-21T15:31:30.898Z,97.55
2017-11-21T15:33:58.468Z,97.49
2017-11-21T15:36:26.037Z,96.79
2017-11-21T15:38:53.614Z,96.51
2017-11-21T15:41:21.287Z,96.92
2017-11-21T15:43:48.856Z,97.01
2017-11-21T15:46:16.449Z,96.54
2017-11-21T15:48:44.947Z,97.04
2017-11-21T15:51:12.646Z,97.30
2017-11-21T15:53:40.218Z,97.33
2017-11-21T15:56:07.786Z,97.07
2017-11-21T15:58:35.356Z,97.22
2017-11-21T16:01:02.935Z,97.12
2017-11-21T16:03:30.501Z,96.55
2017-11-21T16:05:58.075Z,97.41
2017-11-21T16:08:25.653Z,97.93
2017-11-21T16:10:53.218Z,96.87
2017-11-21T16:13:20.821Z,97.30
2017-11-21T16:15:48.396Z,97.46
2017-11-21T16:18:15.961Z,97.64
2017-11-21T16:20:43.526Z,97.64
2017-11-21T16:23:11.097Z,96.80
2017-11-21T16:25:38.665Z,96.47
2017-11-21T16:28:06.234Z,96.44
2017-11-21T16:30:33.801Z,96.61
2017-11-21T16:33:01.371Z,97.02
2017-11-21T16:35:28.975Z,97.44
2017-11-21T16:37:56.540Z,97.28
2017-11-21T16:40:24.110Z,96.20
2017-11-21T16:42:51.689Z,96.99
2017-11-21T16:45:19.249Z,96.68
2017-11-21T16:47:46.814Z,96.10
2017-11-21T16:50:14.375Z,96.25
2017-11-21T16:52:42.874Z,95.91
2017-11-21T16:55:10.487Z,96.67
2017-11-21T16:57:38.054Z,96.48
2017-11-21T17:00:05.630Z,96.90
2017-11-21T17:02:33.203Z,97.17
2017-11-21T17:05:00.778Z,97.01
2017-11-21T17:07:28.345Z,96.86
2017-11-21T17:09:55.906Z,96.90
2017-11-21T17:12:23.512Z,97.25
2017-11-21T17:14:51.083Z,97.23
2017-11-21T17:17:18.654Z,97.39
2017-11-21T17:19:46.222Z,97.38
2017-11-21T17:22:13.828Z,97.70
2017-11-21T17:24:41.400Z,97.36
2017-11-21T17:27:08.970Z,96.98
2017-11-21T17:29:37.010Z,96.41
2017-11-21T17:32:04.610Z,95.76
2017-11-21T17:34:34.967Z,96.17
2017-11-21T17:37:03.982Z,96.73
2017-11-21T17:39:31.550Z,96.89
2017-11-21T17:41:59.135Z,96.97
2017-11-21T17:44:26.702Z,96.92
2017-11-21T17:46:54.315Z,97.27
2017-11-21T17:49:21.914Z,96.97
2017-11-21T17:51:49.558Z,96.97
2017-11-21T17:54:17.186Z,96.52
2017-11-21T17:56:44.757Z,96.57
2017-11-21T17:59:12.327Z,97.18
2017-11-21T18:01:41.915Z,97.24
2017-11-21T18:04:10.831Z,96.97
2017-11-21T18:06:38.454Z,96.01
2017-11-21T18:09:07.056Z,96.41
2017-11-21T18:11:34.756Z,96.27
2017-11-21T18:14:02.324Z,97.09
2017-11-21T18:16:29.899Z,97.51
2017-11-21T18:18:57.474Z,97.18
2017-11-21T18:21:25.051Z,97.22
2017-11-21T18:23:52.624Z,97.10
2017-11-21T18:26:20.197Z,96.80
2017-11-21T18:28:47.771Z,97.84
2017-11-21T18:31:15.352Z,98.08
2017-11-21T18:33:42.910Z,98.28
2017-11-21T18:36:10.471Z,98.26
2017-11-21T18:38:38.087Z,97.67
2017-11-21T18:41:06.131Z,97.18
2017-11-21T18:43:33.809Z,98.06
2017-11-21T18:46:01.391Z,98.37
2017-11-21T18:48:30.595Z,98.32
2017-11-21T18:50:59.081Z,98.33
2017-11-21T18:53:26.724Z,98.42
2017-11-21T18:55:55.175Z,98.01
2017-11-21T18:58:22.763Z,97.65
2017-11-21T19:00:50.380Z,98.28
2017-11-21T19:03:17.949Z,98.64
2017-11-21T19:05:45.511Z,98.43
2017-11-21T19:08:13.175Z,98.54
2017-11-21T19:10:40.839Z,97.95
2017-11-21T19:13:08.516Z,97.27
2017-11-21T19:15:36.082Z,96.97
2017-11-21T19:18:03.715Z,97.23
2017-11-21T19:20:31.325Z,97.00
2017-11-21T19:22:58.902Z,96.92
2017-11-21T19:25:26.504Z,96.72
2017-11-21T19:27:54.075Z,96.39
2017-11-21T19:30:21.692Z,96.53
2017-11-21T19:32:49.255Z,96.19
2017-11-21T19:35:16.829Z,97.37
2017-11-21T19:37:44.398Z,97.55
2017-11-21T19:40:11.969Z,97.06
2017-11-21T19:42:39.542Z,97.62
2017-11-21T19:45:07.113Z,97.67
2017-11-21T19:47:34.682Z,97.66
2017-11-21T19:50:02.246Z,97.72
2017-11-21T19:52:29.810Z,98.04
2017-11-21T19:54:57.370Z,97.86
2017-11-21T19:57:26.126Z,97.49
2017-11-21T19:59:53.740Z,97.31
2017-11-21T20:02:21.303Z,97.28
2017-11-21T20:04:48.862Z,97.37
2017-11-21T20:07:16.418Z,97.75
2017-11-21T20:09:44.025Z,97.21
2017-11-21T20:12:11.584Z,97.34
2017-11-21T20:14:39.245Z,97.22
2017-11-21T20:17:06.850Z,97.19
2017-11-21T20:19:34.425Z,97.04
2017-11-21T20:22:01.992Z,96.36
2017-11-21T20:24:29.551Z,96.91
2017-11-21T20:26:57.119Z,97.03
2017-11-21T20:29:24.714Z,95.92
2017-11-21T20:31:52.294Z,96.01
2017-11-21T20:34:19.898Z,96.39
2017-11-21T20:36:47.474Z,96.27
2017-11-21T20:39:15.089Z,96.14
2017-11-21T20:41:42.718Z,95.77
2017-11-21T20:44:10.297Z,96.21
2017-11-21T20:46:37.875Z,96.38
2017-11-21T20:49:05.442Z,96.09
2017-11-21T20:51:33.069Z,95.65
2017-11-21T20:54:00.733Z,97.12
2017-11-21T20:56:28.309Z,97.81
2017-11-21T20:58:55.956Z,97.53
2017-11-21T21:01:23.562Z,97.63
2017-11-21T21:03:51.128Z,97.28
2017-11-21T21:06:18.735Z,96.95
2017-11-21T21:08:46.395Z,96.68
2017-11-21T21:11:13.995Z,96.89
2017-11-21T21:13:41.628Z,97.44
2017-11-21T21:16:09.195Z,97.75
2017-11-21T21:18:36.847Z,97.04
2017-11-21T21:21:04.506Z,97.27
2017-11-21T21:23:32.069Z,96.64
2017-11-21T21:25:59.635Z,96.74
2017-11-21T21:28:27.210Z,97.39
2017-11-21T21:30:54.777Z,97.34
2017-11-21T21:33:22.340Z,97.37
2017-11-21T21:35:49.908Z,97.09
2017-11-21T21:38:18.704Z,97.11
2017-11-21T21:40:46.292Z,97.10
2017-11-21T21:43:13.858Z,97.83
2017-11-21T21:45:41.418Z,96.93
2017-11-21T21:48:08.977Z,97.91
2017-11-21T21:50:36.538Z,98.18
2017-11-21T21:53:04.238Z,97.35
2017-11-21T21:55:31.798Z,97.96
2017-11-21T21:58:05.949Z,97.66
2017-11-21T22:00:33.570Z,97.92
2017-11-21T22:03:02.255Z,98.21
2017-11-21T22:05:29.810Z,97.73
2017-11-21T22:08:00.205Z,97.39
2017-11-21T22:10:28.611Z,97.70
2017-11-21T22:13:13.246Z,97.06
2017-11-21T22:15:41.720Z,97.12
2017-11-21T22:18:09.514Z,96.80
2017-11-21T22:20:37.074Z,97.43
2017-11-21T22:23:04.718Z,97.62
2017-11-21T22:28:06.223Z,97.71
2017-11-21T22:30:33.794Z,97.88
2017-11-21T22:33:01.361Z,97.62
2017-11-21T22:35:28.926Z,97.62
2017-11-21T22:37:56.534Z,97.98
2017-11-21T22:40:24.093Z,98.22
2017-11-21T22:42:51.655Z,98.35
2017-11-21T22:45:19.221Z,97.86
2017-11-21T22:47:46.778Z,97.78
2017-11-21T22:50:14.381Z,97.60
2017-11-21T22:52:41.943Z,98.05
2017-11-21T22:55:09.510Z,97.95
2017-11-21T22:57:37.114Z,98.42
2017-11-21T23:00:04.679Z,98.05
2017-11-21T23:02:32.242Z,98.04
2017-11-21T23:04:59.801Z,98.29
2017-11-21T23:07:27.362Z,97.62
2017-11-21T23:09:54.921Z,98.26
2017-11-21T23:12:22.490Z,98.22
2017-11-21T23:14:50.086Z,98.04
2017-11-21T23:17:17.653Z,98.55
2017-11-21T23:19:45.241Z,98.06
2017-11-21T23:22:12.797Z,98.35
2017-11-21T23:24:40.393Z,98.77
2017-11-21T23:27:07.965Z,99.07
2017-11-21T23:29:35.570Z,99.12
2017-11-21T23:32:03.129Z,98.97
2017-11-21T23:34:30.693Z,99.06
2017-11-21T23:36:58.262Z,98.51
2017-11-21T23:39:25.852Z,98.20
2017-11-21T23:41:53.411Z,98.54
2017-11-21T23:44:20.975Z,98.62
2017-11-21T23:46:48.536Z,98.74
2017-11-21T23:49:16.101Z,97.99
2017-11-21T23:51:43.663Z,98.11
2017-11-21T23:54:11.227Z,98.48
2017-11-21T23:56:38.786Z,98.40
2017-11-21T23:59:06.345Z,98.00
